Aviation Digital Data Service (ADDS)

Output produced by METARs form (0013 UTC 26 June 2019)
found at http://aviationweather.gov/metar/data/
 
KHOU 252353Z 14008KT 10SM -RA BKN075 BKN110 OVC250 25/21 A3004 RMK AO2 SLP176 P0000 60025 T02500211 10261 20233 56008
KHOU 260000Z 2600/2624 14008KT P6SM VCSH BKN070 BKN110 
     TEMPO 2600/2602 -RA 
     FM260200 14007KT P6SM SCT030 BKN150 
     FM260900 13005KT P6SM BKN020 
     FM261400 13008KT P6SM VCSH SCT030 
     FM261800 14008KT P6SM VCTS SCT040CB